sensor_id;sensor_type;location;lat;lon;timestamp;temperature;humidity
19050;DHT22;9657;45.940;12.840;2023-09-07T00:01:33;26.30;54.60
19050;DHT22;9657;45.940;12.840;2023-09-07T00:04:02;26.30;54.60
19050;DHT22;9657;45.940;12.840;2023-09-07T00:06:30;26.30;54.60
19050;DHT22;9657;45.940;12.840;2023-09-07T00:08:57;26.30;54.60
19050;DHT22;9657;45.940;12.840;2023-09-07T00:11:24;26.30;54.60
19050;DHT22;9657;45.940;12.840;2023-09-07T00:13:51;26.30;54.60
19050;DHT22;9657;45.940;12.840;2023-09-07T00:16:18;26.30;54.60
19050;DHT22;9657;45.940;12.840;2023-09-07T00:18:45;26.30;54.60
19050;DHT22;9657;45.940;12.840;2023-09-07T00:21:14;26.30;54.60
19050;DHT22;9657;45.940;12.840;2023-09-07T00:23:41;26.30;54.60
19050;DHT22;9657;45.940;12.840;2023-09-07T00:26:08;26.30;54.60
19050;DHT22;9657;45.940;12.840;2023-09-07T00:28:36;26.30;54.60
19050;DHT22;9657;45.940;12.840;2023-09-07T00:31:03;26.30;54.60
19050;DHT22;9657;45.940;12.840;2023-09-07T00:33:30;26.30;54.60
19050;DHT22;9657;45.940;12.840;2023-09-07T00:35:57;26.30;54.60
19050;DHT22;9657;45.940;12.840;2023-09-07T00:38:25;26.30;54.60
19050;DHT22;9657;45.940;12.840;2023-09-07T00:40:52;26.30;54.60
19050;DHT22;9657;45.940;12.840;2023-09-07T00:43:19;26.20;55.30
19050;DHT22;9657;45.940;12.840;2023-09-07T00:45:46;26.30;54.60
19050;DHT22;9657;45.940;12.840;2023-09-07T00:48:15;26.30;54.60
19050;DHT22;9657;45.940;12.840;2023-09-07T00:50:43;26.30;54.60
19050;DHT22;9657;45.940;12.840;2023-09-07T00:53:10;26.30;54.60
19050;DHT22;9657;45.940;12.840;2023-09-07T00:55:39;26.20;54.50
19050;DHT22;9657;45.940;12.840;2023-09-07T00:58:06;26.30;54.60
19050;DHT22;9657;45.940;12.840;2023-09-07T01:03:09;26.30;54.60
19050;DHT22;9657;45.940;12.840;2023-09-07T01:05:43;26.30;54.60
19050;DHT22;9657;45.940;12.840;2023-09-07T01:08:15;26.20;54.60
19050;DHT22;9657;45.940;12.840;2023-09-07T01:10:45;26.30;54.60
19050;DHT22;9657;45.940;12.840;2023-09-07T01:13:12;26.20;54.50
19050;DHT22;9657;45.940;12.840;2023-09-07T01:15:40;26.30;54.60
19050;DHT22;9657;45.940;12.840;2023-09-07T01:18:08;26.20;54.50
19050;DHT22;9657;45.940;12.840;2023-09-07T01:20:36;26.20;54.60
19050;DHT22;9657;45.940;12.840;2023-09-07T01:23:05;26.20;54.50
19050;DHT22;9657;45.940;12.840;2023-09-07T01:25:32;26.30;54.60
19050;DHT22;9657;45.940;12.840;2023-09-07T01:27:59;26.20;54.50
19050;DHT22;9657;45.940;12.840;2023-09-07T01:30:27;26.20;54.50
19050;DHT22;9657;45.940;12.840;2023-09-07T01:32:55;26.20;54.50
19050;DHT22;9657;45.940;12.840;2023-09-07T01:35:22;26.20;54.50
19050;DHT22;9657;45.940;12.840;2023-09-07T01:37:50;26.20;54.50
19050;DHT22;9657;45.940;12.840;2023-09-07T01:40:18;26.20;54.50
19050;DHT22;9657;45.940;12.840;2023-09-07T01:42:45;26.20;54.50
19050;DHT22;9657;45.940;12.840;2023-09-07T01:45:13;26.20;54.50
19050;DHT22;9657;45.940;12.840;2023-09-07T01:47:40;26.20;54.50
19050;DHT22;9657;45.940;12.840;2023-09-07T01:50:07;26.20;54.50
19050;DHT22;9657;45.940;12.840;2023-09-07T01:52:34;26.20;54.50
19050;DHT22;9657;45.940;12.840;2023-09-07T01:55:01;26.20;54.50
19050;DHT22;9657;45.940;12.840;2023-09-07T01:57:31;26.20;54.50
19050;DHT22;9657;45.940;12.840;2023-09-07T01:59:58;26.20;54.40
19050;DHT22;9657;45.940;12.840;2023-09-07T02:02:25;26.20;54.40
19050;DHT22;9657;45.940;12.840;2023-09-07T02:04:52;26.20;54.40
19050;DHT22;9657;45.940;12.840;2023-09-07T02:07:19;26.20;54.40
19050;DHT22;9657;45.940;12.840;2023-09-07T02:09:46;26.20;54.40
19050;DHT22;9657;45.940;12.840;2023-09-07T02:12:13;26.20;54.40
19050;DHT22;9657;45.940;12.840;2023-09-07T02:14:41;26.20;54.40
19050;DHT22;9657;45.940;12.840;2023-09-07T02:17:09;26.20;54.40
19050;DHT22;9657;45.940;12.840;2023-09-07T02:19:39;26.20;54.40
19050;DHT22;9657;45.940;12.840;2023-09-07T02:22:06;26.20;54.40
19050;DHT22;9657;45.940;12.840;2023-09-07T02:24:33;26.20;54.40
19050;DHT22;9657;45.940;12.840;2023-09-07T02:27:00;26.20;54.40
19050;DHT22;9657;45.940;12.840;2023-09-07T02:29:27;26.20;54.40
19050;DHT22;9657;45.940;12.840;2023-09-07T02:31:56;26.10;54.30
19050;DHT22;9657;45.940;12.840;2023-09-07T02:34:23;26.20;54.40
19050;DHT22;9657;45.940;12.840;2023-09-07T02:36:50;26.20;54.40
19050;DHT22;9657;45.940;12.840;2023-09-07T02:39:17;26.10;54.30
19050;DHT22;9657;45.940;12.840;2023-09-07T02:41:44;26.10;54.30
19050;DHT22;9657;45.940;12.840;2023-09-07T02:44:11;26.20;54.30
19050;DHT22;9657;45.940;12.840;2023-09-07T02:46:38;26.10;54.30
19050;DHT22;9657;45.940;12.840;2023-09-07T02:49:07;26.10;54.30
19050;DHT22;9657;45.940;12.840;2023-09-07T02:51:34;26.10;54.20
19050;DHT22;9657;45.940;12.840;2023-09-07T02:54:01;26.10;54.20
19050;DHT22;9657;45.940;12.840;2023-09-07T02:56:29;26.10;54.30
19050;DHT22;9657;45.940;12.840;2023-09-07T02:58:56;26.10;54.20
19050;DHT22;9657;45.940;12.840;2023-09-07T03:01:23;26.10;54.20
19050;DHT22;9657;45.940;12.840;2023-09-07T03:03:50;26.10;54.20
19050;DHT22;9657;45.940;12.840;2023-09-07T03:06:19;26.10;54.20
19050;DHT22;9657;45.940;12.840;2023-09-07T03:08:46;26.10;54.20
19050;DHT22;9657;45.940;12.840;2023-09-07T03:11:12;26.10;54.20
19050;DHT22;9657;45.940;12.840;2023-09-07T03:13:39;26.10;54.20
19050;DHT22;9657;45.940;12.840;2023-09-07T03:16:06;26.10;54.20
19050;DHT22;9657;45.940;12.840;2023-09-07T03:18:33;26.10;54.20
19050;DHT22;9657;45.940;12.840;2023-09-07T03:21:01;26.10;54.20
19050;DHT22;9657;45.940;12.840;2023-09-07T03:23:32;26.10;54.10
19050;DHT22;9657;45.940;12.840;2023-09-07T03:26:00;26.10;54.20
19050;DHT22;9657;45.940;12.840;2023-09-07T03:28:27;26.10;54.10
19050;DHT22;9657;45.940;12.840;2023-09-07T03:30:54;26.10;54.10
19050;DHT22;9657;45.940;12.840;2023-09-07T03:33:23;26.10;54.20
19050;DHT22;9657;45.940;12.840;2023-09-07T03:35:50;26.10;54.10
19050;DHT22;9657;45.940;12.840;2023-09-07T03:38:17;26.10;54.10
19050;DHT22;9657;45.940;12.840;2023-09-07T03:40:46;26.10;54.10
19050;DHT22;9657;45.940;12.840;2023-09-07T03:43:13;26.10;54.20
19050;DHT22;9657;45.940;12.840;2023-09-07T03:45:40;26.10;54.10
19050;DHT22;9657;45.940;12.840;2023-09-07T03:48:07;26.10;54.10
19050;DHT22;9657;45.940;12.840;2023-09-07T03:50:35;26.00;54.10
19050;DHT22;9657;45.940;12.840;2023-09-07T03:53:02;26.00;54.10
19050;DHT22;9657;45.940;12.840;2023-09-07T03:55:30;26.00;54.10
19050;DHT22;9657;45.940;12.840;2023-09-07T03:57:58;26.00;54.10
19050;DHT22;9657;45.940;12.840;2023-09-07T04:00:25;26.00;54.10
19050;DHT22;9657;45.940;12.840;2023-09-07T04:02:52;26.00;54.10
19050;DHT22;9657;45.940;12.840;2023-09-07T04:05:21;26.00;54.10
19050;DHT22;9657;45.940;12.840;2023-09-07T04:07:50;26.00;54.10
19050;DHT22;9657;45.940;12.840;2023-09-07T04:10:17;26.00;54.10
19050;DHT22;9657;45.940;12.840;2023-09-07T04:12:45;26.00;54.10
19050;DHT22;9657;45.940;12.840;2023-09-07T04:15:14;26.00;54.80
19050;DHT22;9657;45.940;12.840;2023-09-07T04:17:41;26.00;54.10
19050;DHT22;9657;45.940;12.840;2023-09-07T04:20:09;26.00;54.20
19050;DHT22;9657;45.940;12.840;2023-09-07T04:22:38;26.00;54.10
19050;DHT22;9657;45.940;12.840;2023-09-07T04:25:05;26.00;54.20
19050;DHT22;9657;45.940;12.840;2023-09-07T04:27:32;26.00;54.20
19050;DHT22;9657;45.940;12.840;2023-09-07T04:30:00;26.00;54.20
19050;DHT22;9657;45.940;12.840;2023-09-07T04:32:28;26.00;54.20
19050;DHT22;9657;45.940;12.840;2023-09-07T04:34:56;26.00;54.20
19050;DHT22;9657;45.940;12.840;2023-09-07T04:37:24;26.00;54.20
19050;DHT22;9657;45.940;12.840;2023-09-07T04:39:52;26.00;54.20
19050;DHT22;9657;45.940;12.840;2023-09-07T04:42:19;26.00;54.20
19050;DHT22;9657;45.940;12.840;2023-09-07T04:44:46;26.00;54.20
19050;DHT22;9657;45.940;12.840;2023-09-07T04:47:14;26.00;54.20
19050;DHT22;9657;45.940;12.840;2023-09-07T04:49:48;26.00;54.20
19050;DHT22;9657;45.940;12.840;2023-09-07T04:52:16;26.00;54.30
19050;DHT22;9657;45.940;12.840;2023-09-07T04:54:44;26.00;54.20
19050;DHT22;9657;45.940;12.840;2023-09-07T04:57:12;26.00;54.20
19050;DHT22;9657;45.940;12.840;2023-09-07T04:59:39;26.00;54.20
19050;DHT22;9657;45.940;12.840;2023-09-07T05:02:06;26.00;54.20
19050;DHT22;9657;45.940;12.840;2023-09-07T05:04:33;26.00;54.20
19050;DHT22;9657;45.940;12.840;2023-09-07T05:07:01;26.00;54.20
19050;DHT22;9657;45.940;12.840;2023-09-07T05:09:28;26.00;54.30
19050;DHT22;9657;45.940;12.840;2023-09-07T05:11:56;26.00;54.20
19050;DHT22;9657;45.940;12.840;2023-09-07T05:14:23;26.00;54.20
19050;DHT22;9657;45.940;12.840;2023-09-07T05:16:50;25.90;54.20
19050;DHT22;9657;45.940;12.840;2023-09-07T05:19:18;25.90;54.20
19050;DHT22;9657;45.940;12.840;2023-09-07T05:21:45;25.90;54.20
19050;DHT22;9657;45.940;12.840;2023-09-07T05:24:14;25.90;54.10
19050;DHT22;9657;45.940;12.840;2023-09-07T05:26:42;25.90;54.20
19050;DHT22;9657;45.940;12.840;2023-09-07T05:29:09;25.90;54.10
19050;DHT22;9657;45.940;12.840;2023-09-07T05:31:36;25.90;54.10
19050;DHT22;9657;45.940;12.840;2023-09-07T05:34:03;25.90;54.10
19050;DHT22;9657;45.940;12.840;2023-09-07T05:36:30;25.90;54.00
19050;DHT22;9657;45.940;12.840;2023-09-07T05:38:57;25.90;54.00
19050;DHT22;9657;45.940;12.840;2023-09-07T05:41:26;25.90;53.90
19050;DHT22;9657;45.940;12.840;2023-09-07T05:43:53;25.90;53.90
19050;DHT22;9657;45.940;12.840;2023-09-07T05:46:20;25.90;53.80
19050;DHT22;9657;45.940;12.840;2023-09-07T05:48:47;25.90;53.80
19050;DHT22;9657;45.940;12.840;2023-09-07T05:51:14;25.90;53.80
19050;DHT22;9657;45.940;12.840;2023-09-07T05:53:41;25.90;53.80
19050;DHT22;9657;45.940;12.840;2023-09-07T05:56:08;25.90;53.70
19050;DHT22;9657;45.940;12.840;2023-09-07T05:58:36;25.90;53.70
19050;DHT22;9657;45.940;12.840;2023-09-07T06:01:03;25.90;53.70
19050;DHT22;9657;45.940;12.840;2023-09-07T06:03:31;25.90;53.70
19050;DHT22;9657;45.940;12.840;2023-09-07T06:06:00;25.90;53.70
19050;DHT22;9657;45.940;12.840;2023-09-07T06:08:28;25.90;53.60
19050;DHT22;9657;45.940;12.840;2023-09-07T06:10:55;25.90;53.70
19050;DHT22;9657;45.940;12.840;2023-09-07T06:13:22;25.90;53.60
19050;DHT22;9657;45.940;12.840;2023-09-07T06:15:50;25.90;53.70
19050;DHT22;9657;45.940;12.840;2023-09-07T06:18:17;25.90;53.60
19050;DHT22;9657;45.940;12.840;2023-09-07T06:20:44;25.90;53.60
19050;DHT22;9657;45.940;12.840;2023-09-07T06:23:12;25.90;53.60
19050;DHT22;9657;45.940;12.840;2023-09-07T06:25:39;25.90;53.60
19050;DHT22;9657;45.940;12.840;2023-09-07T06:28:06;25.90;53.60
19050;DHT22;9657;45.940;12.840;2023-09-07T06:30:33;25.90;53.60
19050;DHT22;9657;45.940;12.840;2023-09-07T06:33:02;25.90;53.60
19050;DHT22;9657;45.940;12.840;2023-09-07T06:35:29;25.90;53.70
19050;DHT22;9657;45.940;12.840;2023-09-07T06:37:56;25.90;53.70
19050;DHT22;9657;45.940;12.840;2023-09-07T06:40:23;25.90;53.70
19050;DHT22;9657;45.940;12.840;2023-09-07T06:42:51;25.90;53.70
19050;DHT22;9657;45.940;12.840;2023-09-07T06:45:19;25.90;53.70
19050;DHT22;9657;45.940;12.840;2023-09-07T06:47:49;25.90;53.70
19050;DHT22;9657;45.940;12.840;2023-09-07T06:50:18;25.90;53.70
19050;DHT22;9657;45.940;12.840;2023-09-07T06:52:45;25.90;53.80
19050;DHT22;9657;45.940;12.840;2023-09-07T06:55:12;25.90;53.80
19050;DHT22;9657;45.940;12.840;2023-09-07T06:57:39;25.90;53.80
19050;DHT22;9657;45.940;12.840;2023-09-07T07:00:07;25.90;53.90
19050;DHT22;9657;45.940;12.840;2023-09-07T07:02:34;25.90;53.90
19050;DHT22;9657;45.940;12.840;2023-09-07T07:05:01;25.90;53.90
19050;DHT22;9657;45.940;12.840;2023-09-07T07:07:30;25.90;53.90
19050;DHT22;9657;45.940;12.840;2023-09-07T07:09:57;25.90;53.90
19050;DHT22;9657;45.940;12.840;2023-09-07T07:12:24;25.90;54.00
19050;DHT22;9657;45.940;12.840;2023-09-07T07:14:52;25.90;54.00
19050;DHT22;9657;45.940;12.840;2023-09-07T07:17:19;25.90;54.10
19050;DHT22;9657;45.940;12.840;2023-09-07T07:19:46;25.90;54.10
19050;DHT22;9657;45.940;12.840;2023-09-07T07:22:13;25.90;54.10
19050;DHT22;9657;45.940;12.840;2023-09-07T07:24:42;25.90;54.10
19050;DHT22;9657;45.940;12.840;2023-09-07T07:27:09;25.90;54.10
19050;DHT22;9657;45.940;12.840;2023-09-07T07:29:36;25.90;54.20
19050;DHT22;9657;45.940;12.840;2023-09-07T07:32:04;25.90;54.20
19050;DHT22;9657;45.940;12.840;2023-09-07T07:34:31;25.90;54.20
19050;DHT22;9657;45.940;12.840;2023-09-07T07:36:58;25.90;54.20
19050;DHT22;9657;45.940;12.840;2023-09-07T07:39:25;25.90;54.20
19050;DHT22;9657;45.940;12.840;2023-09-07T07:41:53;25.90;54.20
19050;DHT22;9657;45.940;12.840;2023-09-07T07:44:20;25.90;54.20
19050;DHT22;9657;45.940;12.840;2023-09-07T07:46:47;25.90;54.20
19050;DHT22;9657;45.940;12.840;2023-09-07T07:49:14;25.90;54.20
19050;DHT22;9657;45.940;12.840;2023-09-07T07:51:41;25.90;54.20
19050;DHT22;9657;45.940;12.840;2023-09-07T07:54:08;25.90;54.20
19050;DHT22;9657;45.940;12.840;2023-09-07T07:56:35;25.90;54.20
19050;DHT22;9657;45.940;12.840;2023-09-07T07:59:04;25.90;54.20
19050;DHT22;9657;45.940;12.840;2023-09-07T08:01:31;25.90;54.20
19050;DHT22;9657;45.940;12.840;2023-09-07T08:03:58;25.90;54.20
19050;DHT22;9657;45.940;12.840;2023-09-07T08:06:25;25.90;54.10
19050;DHT22;9657;45.940;12.840;2023-09-07T08:08:52;25.90;54.10
19050;DHT22;9657;45.940;12.840;2023-09-07T08:11:19;25.90;54.10
19050;DHT22;9657;45.940;12.840;2023-09-07T08:13:47;25.90;54.10
19050;DHT22;9657;45.940;12.840;2023-09-07T08:16:15;25.90;54.10
19050;DHT22;9657;45.940;12.840;2023-09-07T08:18:43;25.90;54.10
19050;DHT22;9657;45.940;12.840;2023-09-07T08:21:10;25.90;54.10
19050;DHT22;9657;45.940;12.840;2023-09-07T08:23:37;25.90;54.10
19050;DHT22;9657;45.940;12.840;2023-09-07T08:26:05;25.90;54.00
19050;DHT22;9657;45.940;12.840;2023-09-07T08:28:32;25.90;54.00
19050;DHT22;9657;45.940;12.840;2023-09-07T08:30:59;25.90;54.00
19050;DHT22;9657;45.940;12.840;2023-09-07T08:33:28;25.90;54.00
19050;DHT22;9657;45.940;12.840;2023-09-07T08:35:57;25.90;53.90
19050;DHT22;9657;45.940;12.840;2023-09-07T08:38:26;25.90;53.90
19050;DHT22;9657;45.940;12.840;2023-09-07T08:40:54;25.90;54.00
19050;DHT22;9657;45.940;12.840;2023-09-07T08:43:22;25.90;53.80
19050;DHT22;9657;45.940;12.840;2023-09-07T08:45:58;25.90;53.80
19050;DHT22;9657;45.940;12.840;2023-09-07T08:48:31;25.90;53.80
19050;DHT22;9657;45.940;12.840;2023-09-07T08:50:58;26.00;53.90
19050;DHT22;9657;45.940;12.840;2023-09-07T08:53:27;25.90;53.70
19050;DHT22;9657;45.940;12.840;2023-09-07T08:55:54;25.90;53.60
19050;DHT22;9657;45.940;12.840;2023-09-07T08:58:21;26.00;53.60
19050;DHT22;9657;45.940;12.840;2023-09-07T09:00:48;26.00;53.50
19050;DHT22;9657;45.940;12.840;2023-09-07T09:03:17;26.00;53.40
19050;DHT22;9657;45.940;12.840;2023-09-07T09:05:47;26.00;53.40
19050;DHT22;9657;45.940;12.840;2023-09-07T09:08:15;25.90;53.10
19050;DHT22;9657;45.940;12.840;2023-09-07T09:10:46;26.00;53.20
19050;DHT22;9657;45.940;12.840;2023-09-07T09:13:13;26.00;53.10
19050;DHT22;9657;45.940;12.840;2023-09-07T09:15:40;26.00;53.00
19050;DHT22;9657;45.940;12.840;2023-09-07T09:18:11;26.00;52.90
19050;DHT22;9657;45.940;12.840;2023-09-07T09:20:39;26.00;52.90
19050;DHT22;9657;45.940;12.840;2023-09-07T09:23:07;26.00;52.80
19050;DHT22;9657;45.940;12.840;2023-09-07T09:25:35;26.00;52.60
19050;DHT22;9657;45.940;12.840;2023-09-07T09:28:02;26.00;52.60
19050;DHT22;9657;45.940;12.840;2023-09-07T09:30:29;26.00;52.50
19050;DHT22;9657;45.940;12.840;2023-09-07T09:32:56;26.00;52.50
19050;DHT22;9657;45.940;12.840;2023-09-07T09:35:26;26.00;52.40
19050;DHT22;9657;45.940;12.840;2023-09-07T09:37:53;26.10;52.30
19050;DHT22;9657;45.940;12.840;2023-09-07T09:40:22;26.10;52.20
19050;DHT22;9657;45.940;12.840;2023-09-07T09:42:52;26.10;52.10
19050;DHT22;9657;45.940;12.840;2023-09-07T09:45:20;26.10;52.00
19050;DHT22;9657;45.940;12.840;2023-09-07T09:47:50;26.10;51.80
19050;DHT22;9657;45.940;12.840;2023-09-07T09:50:18;26.10;51.70
19050;DHT22;9657;45.940;12.840;2023-09-07T09:52:47;26.20;51.60
19050;DHT22;9657;45.940;12.840;2023-09-07T09:55:15;26.20;51.40
19050;DHT22;9657;45.940;12.840;2023-09-07T09:57:44;26.30;51.30
19050;DHT22;9657;45.940;12.840;2023-09-07T10:00:12;26.30;51.10
19050;DHT22;9657;45.940;12.840;2023-09-07T10:02:57;26.30;50.80
19050;DHT22;9657;45.940;12.840;2023-09-07T10:05:26;26.30;50.50
19050;DHT22;9657;45.940;12.840;2023-09-07T10:08:00;26.30;50.00
19050;DHT22;9657;45.940;12.840;2023-09-07T10:10:33;26.40;50.10
19050;DHT22;9657;45.940;12.840;2023-09-07T10:13:02;26.40;49.70
19050;DHT22;9657;45.940;12.840;2023-09-07T10:15:29;26.40;49.50
19050;DHT22;9657;45.940;12.840;2023-09-07T10:18:08;26.40;49.20
19050;DHT22;9657;45.940;12.840;2023-09-07T10:20:50;26.40;49.10
19050;DHT22;9657;45.940;12.840;2023-09-07T10:23:18;26.50;48.90
19050;DHT22;9657;45.940;12.840;2023-09-07T10:25:48;26.50;48.70
19050;DHT22;9657;45.940;12.840;2023-09-07T10:28:24;26.50;49.30
19050;DHT22;9657;45.940;12.840;2023-09-07T10:31:01;26.60;48.80
19050;DHT22;9657;45.940;12.840;2023-09-07T10:33:30;26.60;48.90
19050;DHT22;9657;45.940;12.840;2023-09-07T10:35:57;26.60;48.80
19050;DHT22;9657;45.940;12.840;2023-09-07T10:38:25;26.70;49.00
19050;DHT22;9657;45.940;12.840;2023-09-07T10:40:56;26.70;49.00
19050;DHT22;9657;45.940;12.840;2023-09-07T10:43:27;26.70;48.80
19050;DHT22;9657;45.940;12.840;2023-09-07T10:45:55;26.70;48.70
19050;DHT22;9657;45.940;12.840;2023-09-07T10:48:23;26.70;48.70
19050;DHT22;9657;45.940;12.840;2023-09-07T10:50:51;26.70;48.50
19050;DHT22;9657;45.940;12.840;2023-09-07T10:53:25;26.70;48.30
19050;DHT22;9657;45.940;12.840;2023-09-07T10:55:53;26.70;48.50
19050;DHT22;9657;45.940;12.840;2023-09-07T10:58:29;26.70;48.80
19050;DHT22;9657;45.940;12.840;2023-09-07T11:00:56;26.70;49.10
19050;DHT22;9657;45.940;12.840;2023-09-07T11:03:24;26.70;49.00
19050;DHT22;9657;45.940;12.840;2023-09-07T11:05:54;26.70;49.00
19050;DHT22;9657;45.940;12.840;2023-09-07T11:08:23;26.70;49.20
19050;DHT22;9657;45.940;12.840;2023-09-07T11:10:50;26.70;49.40
19050;DHT22;9657;45.940;12.840;2023-09-07T11:13:18;26.70;49.70
19050;DHT22;9657;45.940;12.840;2023-09-07T11:15:46;26.70;49.80
19050;DHT22;9657;45.940;12.840;2023-09-07T11:18:18;26.70;50.00
19050;DHT22;9657;45.940;12.840;2023-09-07T11:20:46;26.70;50.10
19050;DHT22;9657;45.940;12.840;2023-09-07T11:23:13;26.60;50.20
19050;DHT22;9657;45.940;12.840;2023-09-07T11:25:40;26.70;50.10
19050;DHT22;9657;45.940;12.840;2023-09-07T11:28:09;26.70;50.30
19050;DHT22;9657;45.940;12.840;2023-09-07T11:30:37;26.70;50.40
19050;DHT22;9657;45.940;12.840;2023-09-07T11:33:07;26.60;50.50
19050;DHT22;9657;45.940;12.840;2023-09-07T11:35:34;26.60;50.40
19050;DHT22;9657;45.940;12.840;2023-09-07T11:38:03;26.70;50.60
19050;DHT22;9657;45.940;12.840;2023-09-07T11:40:32;26.60;50.70
19050;DHT22;9657;45.940;12.840;2023-09-07T11:42:59;26.70;50.80
19050;DHT22;9657;45.940;12.840;2023-09-07T11:45:26;26.70;50.50
19050;DHT22;9657;45.940;12.840;2023-09-07T11:47:53;26.60;50.50
19050;DHT22;9657;45.940;12.840;2023-09-07T11:50:24;26.60;50.50
19050;DHT22;9657;45.940;12.840;2023-09-07T11:52:51;26.60;50.50
19050;DHT22;9657;45.940;12.840;2023-09-07T11:55:18;26.70;50.30
19050;DHT22;9657;45.940;12.840;2023-09-07T11:57:45;26.60;50.30
19050;DHT22;9657;45.940;12.840;2023-09-07T12:00:12;26.60;50.20
19050;DHT22;9657;45.940;12.840;2023-09-07T12:02:40;26.70;50.20
19050;DHT22;9657;45.940;12.840;2023-09-07T12:05:08;26.60;50.30
19050;DHT22;9657;45.940;12.840;2023-09-07T12:07:36;26.60;50.30
19050;DHT22;9657;45.940;12.840;2023-09-07T12:10:04;26.70;50.30
19050;DHT22;9657;45.940;12.840;2023-09-07T12:12:31;26.70;50.50
19050;DHT22;9657;45.940;12.840;2023-09-07T12:14:58;26.60;50.20
19050;DHT22;9657;45.940;12.840;2023-09-07T12:17:26;26.60;50.50
19050;DHT22;9657;45.940;12.840;2023-09-07T12:19:53;26.60;50.40
19050;DHT22;9657;45.940;12.840;2023-09-07T12:22:20;26.70;50.40
19050;DHT22;9657;45.940;12.840;2023-09-07T12:24:49;26.60;50.70
19050;DHT22;9657;45.940;12.840;2023-09-07T12:27:16;26.60;50.70
19050;DHT22;9657;45.940;12.840;2023-09-07T12:29:44;26.60;50.80
19050;DHT22;9657;45.940;12.840;2023-09-07T12:32:11;26.60;50.80
19050;DHT22;9657;45.940;12.840;2023-09-07T12:34:38;26.70;51.00
19050;DHT22;9657;45.940;12.840;2023-09-07T12:37:06;26.70;51.00
19050;DHT22;9657;45.940;12.840;2023-09-07T12:39:33;26.70;51.00
19050;DHT22;9657;45.940;12.840;2023-09-07T12:42:02;26.70;51.30
19050;DHT22;9657;45.940;12.840;2023-09-07T12:44:29;26.70;51.40
19050;DHT22;9657;45.940;12.840;2023-09-07T12:46:56;26.70;51.30
19050;DHT22;9657;45.940;12.840;2023-09-07T12:49:23;26.70;51.80
19050;DHT22;9657;45.940;12.840;2023-09-07T12:51:50;26.70;51.10
19050;DHT22;9657;45.940;12.840;2023-09-07T12:54:17;26.70;50.80
19050;DHT22;9657;45.940;12.840;2023-09-07T12:56:44;26.70;50.60
19050;DHT22;9657;45.940;12.840;2023-09-07T12:59:13;26.70;50.80
19050;DHT22;9657;45.940;12.840;2023-09-07T13:01:40;26.70;50.80
19050;DHT22;9657;45.940;12.840;2023-09-07T13:04:07;26.70;51.00
19050;DHT22;9657;45.940;12.840;2023-09-07T13:06:34;26.70;51.00
19050;DHT22;9657;45.940;12.840;2023-09-07T13:09:01;26.70;51.40
19050;DHT22;9657;45.940;12.840;2023-09-07T13:11:30;26.70;51.70
19050;DHT22;9657;45.940;12.840;2023-09-07T13:13:57;26.70;51.70
19050;DHT22;9657;45.940;12.840;2023-09-07T13:16:26;26.80;51.70
19050;DHT22;9657;45.940;12.840;2023-09-07T13:18:53;26.70;51.70
19050;DHT22;9657;45.940;12.840;2023-09-07T13:21:20;26.70;51.90
19050;DHT22;9657;45.940;12.840;2023-09-07T13:23:47;26.80;51.90
19050;DHT22;9657;45.940;12.840;2023-09-07T13:26:14;26.70;51.90
19050;DHT22;9657;45.940;12.840;2023-09-07T13:28:41;26.70;52.00
19050;DHT22;9657;45.940;12.840;2023-09-07T13:31:08;26.80;51.70
19050;DHT22;9657;45.940;12.840;2023-09-07T13:33:37;26.80;51.60
19050;DHT22;9657;45.940;12.840;2023-09-07T13:36:04;26.80;51.50
19050;DHT22;9657;45.940;12.840;2023-09-07T13:38:31;26.80;51.50
19050;DHT22;9657;45.940;12.840;2023-09-07T13:40:58;26.80;51.70
19050;DHT22;9657;45.940;12.840;2023-09-07T13:43:25;26.80;51.30
19050;DHT22;9657;45.940;12.840;2023-09-07T13:45:52;26.80;51.40
19050;DHT22;9657;45.940;12.840;2023-09-07T13:48:19;26.80;51.20
19050;DHT22;9657;45.940;12.840;2023-09-07T13:50:47;26.80;51.00
19050;DHT22;9657;45.940;12.840;2023-09-07T13:53:14;26.80;50.90
19050;DHT22;9657;45.940;12.840;2023-09-07T13:55:41;26.80;51.00
19050;DHT22;9657;45.940;12.840;2023-09-07T13:58:11;26.80;51.10
19050;DHT22;9657;45.940;12.840;2023-09-07T14:00:38;26.80;51.00
19050;DHT22;9657;45.940;12.840;2023-09-07T14:03:05;26.80;51.10
19050;DHT22;9657;45.940;12.840;2023-09-07T14:05:32;26.80;51.40
19050;DHT22;9657;45.940;12.840;2023-09-07T14:08:01;26.80;51.30
19050;DHT22;9657;45.940;12.840;2023-09-07T14:10:28;26.80;51.40
19050;DHT22;9657;45.940;12.840;2023-09-07T14:12:55;26.80;51.30
19050;DHT22;9657;45.940;12.840;2023-09-07T14:15:22;26.80;51.30
19050;DHT22;9657;45.940;12.840;2023-09-07T14:17:49;26.80;51.40
19050;DHT22;9657;45.940;12.840;2023-09-07T14:20:16;26.80;51.40
19050;DHT22;9657;45.940;12.840;2023-09-07T14:22:44;26.80;51.50
19050;DHT22;9657;45.940;12.840;2023-09-07T14:25:13;26.90;51.60
19050;DHT22;9657;45.940;12.840;2023-09-07T14:27:42;26.90;51.50
19050;DHT22;9657;45.940;12.840;2023-09-07T14:30:10;26.90;51.50
19050;DHT22;9657;45.940;12.840;2023-09-07T14:32:38;26.90;51.60
19050;DHT22;9657;45.940;12.840;2023-09-07T14:35:06;26.90;51.60
19050;DHT22;9657;45.940;12.840;2023-09-07T14:37:34;26.90;51.40
19050;DHT22;9657;45.940;12.840;2023-09-07T14:40:01;26.90;51.40
19050;DHT22;9657;45.940;12.840;2023-09-07T14:42:30;26.90;51.50
19050;DHT22;9657;45.940;12.840;2023-09-07T14:44:57;26.90;51.30
19050;DHT22;9657;45.940;12.840;2023-09-07T14:47:28;26.90;51.40
19050;DHT22;9657;45.940;12.840;2023-09-07T14:49:55;26.90;51.40
19050;DHT22;9657;45.940;12.840;2023-09-07T14:52:22;26.90;51.40
19050;DHT22;9657;45.940;12.840;2023-09-07T14:54:50;26.90;51.40
19050;DHT22;9657;45.940;12.840;2023-09-07T14:57:17;26.90;51.30
19050;DHT22;9657;45.940;12.840;2023-09-07T14:59:45;26.90;51.40
19050;DHT22;9657;45.940;12.840;2023-09-07T15:02:12;26.90;51.40
19050;DHT22;9657;45.940;12.840;2023-09-07T15:04:39;26.90;51.30
19050;DHT22;9657;45.940;12.840;2023-09-07T15:07:08;26.90;51.30
19050;DHT22;9657;45.940;12.840;2023-09-07T15:09:35;26.90;51.40
19050;DHT22;9657;45.940;12.840;2023-09-07T15:12:02;26.90;51.30
19050;DHT22;9657;45.940;12.840;2023-09-07T15:14:30;26.90;51.40
19050;DHT22;9657;45.940;12.840;2023-09-07T15:16:58;27.00;51.50
19050;DHT22;9657;45.940;12.840;2023-09-07T15:19:25;26.90;52.30
19050;DHT22;9657;45.940;12.840;2023-09-07T15:21:52;27.00;51.70
19050;DHT22;9657;45.940;12.840;2023-09-07T15:24:19;27.00;51.50
19050;DHT22;9657;45.940;12.840;2023-09-07T15:26:47;27.00;51.70
19050;DHT22;9657;45.940;12.840;2023-09-07T15:29:14;27.00;51.70
19050;DHT22;9657;45.940;12.840;2023-09-07T15:31:41;27.00;51.70
19050;DHT22;9657;45.940;12.840;2023-09-07T15:34:09;27.00;51.70
19050;DHT22;9657;45.940;12.840;2023-09-07T15:36:36;27.00;51.60